Aviation Digital Data Service (ADDS)

Output produced by METARs form (2219 UTC 24 March 2019)
found at http://www.aviationweather.gov/metar/data/
 
METAR text: EBBR 242150Z 25005KT CAVOK 05/00 Q1026 NOSIG
Conditions at: EBBR (BRUSSELS NATIONA, BE) observed 2150 UTC 24 March 2019
Temperature: 5.0°C (41°F)
Dewpoint: 0.0°C (32°F) [RH = 70%]
Pressure (altimeter): 30.30 inches Hg (1026.0 mb)
Winds: from the WSW (250 degrees) at 6 MPH (5 knots; 2.6 m/s)
Visibility: 6 or more miles (10+ km)
Ceiling: ceiling and visibility are OK
Clouds: unknown
Weather: no significant weather observed at this time

METAR text: EBBR 242120Z 27004KT CAVOK 05/M01 Q1026 NOSIG
Conditions at: EBBR (BRUSSELS NATIONA, BE) observed 2120 UTC 24 March 2019
Temperature: 5.0°C (41°F)
Dewpoint: -1.0°C (30°F) [RH = 65%]
Pressure (altimeter): 30.30 inches Hg (1026.0 mb)
Winds: from the W (270 degrees) at 5 MPH (4 knots; 2.1 m/s)
Visibility: 6 or more miles (10+ km)
Ceiling: ceiling and visibility are OK
Clouds: unknown
Weather: no significant weather observed at this time

METAR text: EBBR 242050Z 27004KT CAVOK 05/M00 Q1026 NOSIG
Conditions at: EBBR (BRUSSELS NATIONA, BE) observed 2050 UTC 24 March 2019
Temperature: 5.0°C (41°F)
Dewpoint: 0.0°C (32°F) [RH = 70%]
Pressure (altimeter): 30.30 inches Hg (1026.0 mb)
Winds: from the W (270 degrees) at 5 MPH (4 knots; 2.1 m/s)
Visibility: 6 or more miles (10+ km)
Ceiling: ceiling and visibility are OK
Clouds: unknown
Weather: no significant weather observed at this time

METAR text: EBBR 242020Z 27004KT CAVOK 05/M01 Q1027 NOSIG
Conditions at: EBBR (BRUSSELS NATIONA, BE) observed 2020 UTC 24 March 2019
Temperature: 5.0°C (41°F)
Dewpoint: -1.0°C (30°F) [RH = 65%]
Pressure (altimeter): 30.32 inches Hg (1027.0 mb)
Winds: from the W (270 degrees) at 5 MPH (4 knots; 2.1 m/s)
Visibility: 6 or more miles (10+ km)
Ceiling: ceiling and visibility are OK
Clouds: unknown
Weather: no significant weather observed at this time

METAR text: EBBR 241950Z 29005KT CAVOK 06/01 Q1027 NOSIG
Conditions at: EBBR (BRUSSELS NATIONA, BE) observed 1950 UTC 24 March 2019
Temperature: 6.0°C (43°F)
Dewpoint: 1.0°C (34°F) [RH = 70%]
Pressure (altimeter): 30.32 inches Hg (1027.0 mb)
Winds: from the WNW (290 degrees) at 6 MPH (5 knots; 2.6 m/s)
Visibility: 6 or more miles (10+ km)
Ceiling: ceiling and visibility are OK
Clouds: unknown
Weather: no significant weather observed at this time

METAR text: EBBR 241920Z 31005KT CAVOK 06/00 Q1027 NOSIG
Conditions at: EBBR (BRUSSELS NATIONA, BE) observed 1920 UTC 24 March 2019
Temperature: 6.0°C (43°F)
Dewpoint: 0.0°C (32°F) [RH = 65%]
Pressure (altimeter): 30.32 inches Hg (1027.0 mb)
Winds: from the NW (310 degrees) at 6 MPH (5 knots; 2.6 m/s)
Visibility: 6 or more miles (10+ km)
Ceiling: ceiling and visibility are OK
Clouds: unknown
Weather: no significant weather observed at this time

METAR text: EBBR 241850Z 33006KT CAVOK 07/01 Q1027 NOSIG
Conditions at: EBBR (BRUSSELS NATIONA, BE) observed 1850 UTC 24 March 2019
Temperature: 7.0°C (45°F)
Dewpoint: 1.0°C (34°F) [RH = 66%]
Pressure (altimeter): 30.32 inches Hg (1027.0 mb)
Winds: from the NNW (330 degrees) at 7 MPH (6 knots; 3.1 m/s)
Visibility: 6 or more miles (10+ km)
Ceiling: ceiling and visibility are OK
Clouds: unknown
Weather: no significant weather observed at this time

METAR text: EBBR 241820Z 32005KT CAVOK 08/00 Q1027 NOSIG
Conditions at: EBBR (BRUSSELS NATIONA, BE) observed 1820 UTC 24 March 2019
Temperature: 8.0°C (46°F)
Dewpoint: 0.0°C (32°F) [RH = 57%]
Pressure (altimeter): 30.32 inches Hg (1027.0 mb)
Winds: from the NW (320 degrees) at 6 MPH (5 knots; 2.6 m/s)
Visibility: 6 or more miles (10+ km)
Ceiling: ceiling and visibility are OK
Clouds: unknown
Weather: no significant weather observed at this time

METAR text: EBBR 241750Z 33007KT CAVOK 09/00 Q1027 NOSIG
Conditions at: EBBR (BRUSSELS NATIONA, BE) observed 1750 UTC 24 March 2019
Temperature: 9.0°C (48°F)
Dewpoint: 0.0°C (32°F) [RH = 53%]
Pressure (altimeter): 30.32 inches Hg (1027.0 mb)
Winds: from the NNW (330 degrees) at 8 MPH (7 knots; 3.6 m/s)
Visibility: 6 or more miles (10+ km)
Ceiling: ceiling and visibility are OK
Clouds: unknown
Weather: no significant weather observed at this time

METAR text: EBBR 241720Z 34008KT CAVOK 09/01 Q1027 NOSIG
Conditions at: EBBR (BRUSSELS NATIONA, BE) observed 1720 UTC 24 March 2019
Temperature: 9.0°C (48°F)
Dewpoint: 1.0°C (34°F) [RH = 57%]
Pressure (altimeter): 30.32 inches Hg (1027.0 mb)
Winds: from the NNW (340 degrees) at 9 MPH (8 knots; 4.1 m/s)
Visibility: 6 or more miles (10+ km)
Ceiling: ceiling and visibility are OK
Clouds: unknown
Weather: no significant weather observed at this time

METAR text: EBBR 241650Z 35008KT 310V010 CAVOK 10/M00 Q1027 NOSIG
Conditions at: EBBR (BRUSSELS NATIONA, BE) observed 1650 UTC 24 March 2019
Temperature: 10.0°C (50°F)
Dewpoint: 0.0°C (32°F) [RH = 50%]
Pressure (altimeter): 30.32 inches Hg (1027.0 mb)
Winds: from the N (350 degrees) at 9 MPH (8 knots; 4.1 m/s)
Visibility: 6 or more miles (10+ km)
Ceiling: ceiling and visibility are OK
Clouds: unknown
Weather: no significant weather observed at this time

METAR text: EBBR 241620Z 33008KT 300V360 CAVOK 10/M02 Q1027 NOSIG
Conditions at: EBBR (BRUSSELS NATIONA, BE) observed 1620 UTC 24 March 2019
Temperature: 10.0°C (50°F)
Dewpoint: -2.0°C (28°F) [RH = 43%]
Pressure (altimeter): 30.32 inches Hg (1027.0 mb)
Winds: from the NNW (330 degrees) at 9 MPH (8 knots; 4.1 m/s)
Visibility: 6 or more miles (10+ km)
Ceiling: ceiling and visibility are OK
Clouds: unknown
Weather: no significant weather observed at this time

METAR text: EBBR 241550Z 34007KT CAVOK 11/M01 Q1027 NOSIG
Conditions at: EBBR (BRUSSELS NATIONA, BE) observed 1550 UTC 24 March 2019
Temperature: 11.0°C (52°F)
Dewpoint: -1.0°C (30°F) [RH = 43%]
Pressure (altimeter): 30.32 inches Hg (1027.0 mb)
Winds: from the NNW (340 degrees) at 8 MPH (7 knots; 3.6 m/s)
Visibility: 6 or more miles (10+ km)
Ceiling: ceiling and visibility are OK
Clouds: unknown
Weather: no significant weather observed at this time

METAR text: EBBR 241520Z 31008KT 280V340 CAVOK 11/M01 Q1027 NOSIG
Conditions at: EBBR (BRUSSELS NATIONA, BE) observed 1520 UTC 24 March 2019
Temperature: 11.0°C (52°F)
Dewpoint: -1.0°C (30°F) [RH = 43%]
Pressure (altimeter): 30.32 inches Hg (1027.0 mb)
Winds: from the NW (310 degrees) at 9 MPH (8 knots; 4.1 m/s)
Visibility: 6 or more miles (10+ km)
Ceiling: ceiling and visibility are OK
Clouds: unknown
Weather: no significant weather observed at this time

METAR text: EBBR 241450Z 31008KT CAVOK 11/M01 Q1027 NOSIG
Conditions at: EBBR (BRUSSELS NATIONA, BE) observed 1450 UTC 24 March 2019
Temperature: 11.0°C (52°F)
Dewpoint: -1.0°C (30°F) [RH = 43%]
Pressure (altimeter): 30.32 inches Hg (1027.0 mb)
Winds: from the NW (310 degrees) at 9 MPH (8 knots; 4.1 m/s)
Visibility: 6 or more miles (10+ km)
Ceiling: ceiling and visibility are OK
Clouds: unknown
Weather: no significant weather observed at this time

METAR text: EBBR 241420Z 32007KT 280V360 CAVOK 10/M02 Q1027 NOSIG
Conditions at: EBBR (BRUSSELS NATIONA, BE) observed 1420 UTC 24 March 2019
Temperature: 10.0°C (50°F)
Dewpoint: -2.0°C (28°F) [RH = 43%]
Pressure (altimeter): 30.32 inches Hg (1027.0 mb)
Winds: from the NW (320 degrees) at 8 MPH (7 knots; 3.6 m/s)
Visibility: 6 or more miles (10+ km)
Ceiling: ceiling and visibility are OK
Clouds: unknown
Weather: no significant weather observed at this time

METAR text: EBBR 241350Z 33008KT 280V020 CAVOK 11/01 Q1028 NOSIG
Conditions at: EBBR (BRUSSELS NATIONA, BE) observed 1350 UTC 24 March 2019
Temperature: 11.0°C (52°F)
Dewpoint: 1.0°C (34°F) [RH = 50%]
Pressure (altimeter): 30.35 inches Hg (1028.0 mb)
Winds: from the NNW (330 degrees) at 9 MPH (8 knots; 4.1 m/s)
Visibility: 6 or more miles (10+ km)
Ceiling: ceiling and visibility are OK
Clouds: unknown
Weather: no significant weather observed at this time

METAR text: EBBR 241320Z 32011KT CAVOK 10/01 Q1028 NOSIG
Conditions at: EBBR (BRUSSELS NATIONA, BE) observed 1320 UTC 24 March 2019
Temperature: 10.0°C (50°F)
Dewpoint: 1.0°C (34°F) [RH = 53%]
Pressure (altimeter): 30.35 inches Hg (1028.0 mb)
Winds: from the NW (320 degrees) at 13 MPH (11 knots; 5.7 m/s)
Visibility: 6 or more miles (10+ km)
Ceiling: ceiling and visibility are OK
Clouds: unknown
Weather: no significant weather observed at this time

METAR text: EBBR 241250Z 35008KT 310V030 CAVOK 11/01 Q1028 NOSIG
Conditions at: EBBR (BRUSSELS NATIONA, BE) observed 1250 UTC 24 March 2019
Temperature: 11.0°C (52°F)
Dewpoint: 1.0°C (34°F) [RH = 50%]
Pressure (altimeter): 30.35 inches Hg (1028.0 mb)
Winds: from the N (350 degrees) at 9 MPH (8 knots; 4.1 m/s)
Visibility: 6 or more miles (10+ km)
Ceiling: ceiling and visibility are OK
Clouds: unknown
Weather: no significant weather observed at this time

METAR text: EBBR 241220Z 34009KT 300V010 CAVOK 10/M00 Q1028 NOSIG
Conditions at: EBBR (BRUSSELS NATIONA, BE) observed 1220 UTC 24 March 2019
Temperature: 10.0°C (50°F)
Dewpoint: 0.0°C (32°F) [RH = 50%]
Pressure (altimeter): 30.35 inches Hg (1028.0 mb)
Winds: from the NNW (340 degrees) at 10 MPH (9 knots; 4.6 m/s)
Visibility: 6 or more miles (10+ km)
Ceiling: ceiling and visibility are OK
Clouds: unknown
Weather: no significant weather observed at this time

METAR text: EBBR 241150Z 32010KT 290V010 9999 FEW030 10/00 Q1028 NOSIG
Conditions at: EBBR (BRUSSELS NATIONA, BE) observed 1150 UTC 24 March 2019
Temperature: 10.0°C (50°F)
Dewpoint: 0.0°C (32°F) [RH = 50%]
Pressure (altimeter): 30.35 inches Hg (1028.0 mb)
Winds: from the NW (320 degrees) at 12 MPH (10 knots; 5.1 m/s)
Visibility: 6 or more miles (10+ km)
Ceiling: at least 12,000 feet AGL
Clouds: few clouds at 3000 feet AGL
Weather: no significant weather observed at this time

METAR text: EBBR 241120Z 35005KT 290V030 9999 FEW025 11/04 Q1028 NOSIG
Conditions at: EBBR (BRUSSELS NATIONA, BE) observed 1120 UTC 24 March 2019
Temperature: 11.0°C (52°F)
Dewpoint: 4.0°C (39°F) [RH = 62%]
Pressure (altimeter): 30.35 inches Hg (1028.0 mb)
Winds: from the N (350 degrees) at 6 MPH (5 knots; 2.6 m/s)
Visibility: 6 or more miles (10+ km)
Ceiling: at least 12,000 feet AGL
Clouds: few clouds at 2500 feet AGL
Weather: no significant weather observed at this time

METAR text: EBBR 241050Z VRB03KT 9999 FEW025 10/04 Q1028 NOSIG
Conditions at: EBBR (BRUSSELS NATIONA, BE) observed 1050 UTC 24 March 2019
Temperature: 10.0°C (50°F)
Dewpoint: 4.0°C (39°F) [RH = 66%]
Pressure (altimeter): 30.35 inches Hg (1028.0 mb)
Winds: variable direction winds at 3 MPH (3 knots; 1.5 m/s)
Visibility: 6 or more miles (10+ km)
Ceiling: at least 12,000 feet AGL
Clouds: few clouds at 2500 feet AGL
Weather: no significant weather observed at this time

METAR text: EBBR 241020Z 04005KT 9999 FEW023 09/04 Q1028 NOSIG
Conditions at: EBBR (BRUSSELS NATIONA, BE) observed 1020 UTC 24 March 2019
Temperature: 9.0°C (48°F)
Dewpoint: 4.0°C (39°F) [RH = 71%]
Pressure (altimeter): 30.35 inches Hg (1028.0 mb)
Winds: from the NE (40 degrees) at 6 MPH (5 knots; 2.6 m/s)
Visibility: 6 or more miles (10+ km)
Ceiling: at least 12,000 feet AGL
Clouds: few clouds at 2300 feet AGL
Weather: no significant weather observed at this time

METAR text: EBBR 240950Z 36005KT 310V050 9999 FEW035 09/04 Q1029 NOSIG
Conditions at: EBBR (BRUSSELS NATIONA, BE) observed 0950 UTC 24 March 2019
Temperature: 9.0°C (48°F)
Dewpoint: 4.0°C (39°F) [RH = 71%]
Pressure (altimeter): 30.38 inches Hg (1029.0 mb)
Winds: from the N (360 degrees) at 6 MPH (5 knots; 2.6 m/s)
Visibility: 6 or more miles (10+ km)
Ceiling: at least 12,000 feet AGL
Clouds: few clouds at 3500 feet AGL
Weather: no significant weather observed at this time

METAR text: EBBR 240920Z 34004KT 300V030 CAVOK 08/04 Q1029 NOSIG
Conditions at: EBBR (BRUSSELS NATIONA, BE) observed 0920 UTC 24 March 2019
Temperature: 8.0°C (46°F)
Dewpoint: 4.0°C (39°F) [RH = 76%]
Pressure (altimeter): 30.38 inches Hg (1029.0 mb)
Winds: from the NNW (340 degrees) at 5 MPH (4 knots; 2.1 m/s)
Visibility: 6 or more miles (10+ km)
Ceiling: ceiling and visibility are OK
Clouds: unknown
Weather: no significant weather observed at this time

METAR text: EBBR 240850Z 35005KT 320V020 CAVOK 07/04 Q1029 NOSIG
Conditions at: EBBR (BRUSSELS NATIONA, BE) observed 0850 UTC 24 March 2019
Temperature: 7.0°C (45°F)
Dewpoint: 4.0°C (39°F) [RH = 81%]
Pressure (altimeter): 30.38 inches Hg (1029.0 mb)
Winds: from the N (350 degrees) at 6 MPH (5 knots; 2.6 m/s)
Visibility: 6 or more miles (10+ km)
Ceiling: ceiling and visibility are OK
Clouds: unknown
Weather: no significant weather observed at this time

METAR text: EBBR 240820Z 35005KT 320V020 CAVOK 07/04 Q1029 NOSIG
Conditions at: EBBR (BRUSSELS NATIONA, BE) observed 0820 UTC 24 March 2019
Temperature: 7.0°C (45°F)
Dewpoint: 4.0°C (39°F) [RH = 81%]
Pressure (altimeter): 30.38 inches Hg (1029.0 mb)
Winds: from the N (350 degrees) at 6 MPH (5 knots; 2.6 m/s)
Visibility: 6 or more miles (10+ km)
Ceiling: ceiling and visibility are OK
Clouds: unknown
Weather: no significant weather observed at this time

METAR text: EBBR 240750Z VRB02KT CAVOK 06/03 Q1028 NOSIG
Conditions at: EBBR (BRUSSELS NATIONA, BE) observed 0750 UTC 24 March 2019
Temperature: 6.0°C (43°F)
Dewpoint: 3.0°C (37°F) [RH = 81%]
Pressure (altimeter): 30.35 inches Hg (1028.0 mb)
Winds: variable direction winds at 2 MPH (2 knots; 1.0 m/s)
Visibility: 6 or more miles (10+ km)
Ceiling: ceiling and visibility are OK
Clouds: unknown
Weather: no significant weather observed at this time

METAR text: EBBR 240720Z 04003KT 360V070 CAVOK 05/03 Q1028 NOSIG
Conditions at: EBBR (BRUSSELS NATIONA, BE) observed 0720 UTC 24 March 2019
Temperature: 5.0°C (41°F)
Dewpoint: 3.0°C (37°F) [RH = 87%]
Pressure (altimeter): 30.35 inches Hg (1028.0 mb)
Winds: from the NE (40 degrees) at 3 MPH (3 knots; 1.5 m/s)
Visibility: 6 or more miles (10+ km)
Ceiling: ceiling and visibility are OK
Clouds: unknown
Weather: no significant weather observed at this time

METAR text: EBBR 240650Z 02003KT 350V050 CAVOK 05/03 Q1028 NOSIG
Conditions at: EBBR (BRUSSELS NATIONA, BE) observed 0650 UTC 24 March 2019
Temperature: 5.0°C (41°F)
Dewpoint: 3.0°C (37°F) [RH = 87%]
Pressure (altimeter): 30.35 inches Hg (1028.0 mb)
Winds: from the NNE (20 degrees) at 3 MPH (3 knots; 1.5 m/s)
Visibility: 6 or more miles (10+ km)
Ceiling: ceiling and visibility are OK
Clouds: unknown
Weather: no significant weather observed at this time

METAR text: EBBR 240620Z 01005KT 330V050 9999 BKN048 05/03 Q1029 NOSIG
Conditions at: EBBR (BRUSSELS NATIONA, BE) observed 0620 UTC 24 March 2019
Temperature: 5.0°C (41°F)
Dewpoint: 3.0°C (37°F) [RH = 87%]
Pressure (altimeter): 30.38 inches Hg (1029.0 mb)
Winds: from the N (10 degrees) at 6 MPH (5 knots; 2.6 m/s)
Visibility: 6 or more miles (10+ km)
Ceiling: 4800 feet AGL
Clouds: broken clouds at 4800 feet AGL
Weather: no significant weather observed at this time

METAR text: EBBR 240550Z 01005KT 9999 BKN044 06/03 Q1029 NOSIG
Conditions at: EBBR (BRUSSELS NATIONA, BE) observed 0550 UTC 24 March 2019
Temperature: 6.0°C (43°F)
Dewpoint: 3.0°C (37°F) [RH = 81%]
Pressure (altimeter): 30.38 inches Hg (1029.0 mb)
Winds: from the N (10 degrees) at 6 MPH (5 knots; 2.6 m/s)
Visibility: 6 or more miles (10+ km)
Ceiling: 4400 feet AGL
Clouds: broken clouds at 4400 feet AGL
Weather: no significant weather observed at this time

METAR text: EBBR 240520Z 01004KT 330V040 9999 BKN044 06/03 Q1029 NOSIG
Conditions at: EBBR (BRUSSELS NATIONA, BE) observed 0520 UTC 24 March 2019
Temperature: 6.0°C (43°F)
Dewpoint: 3.0°C (37°F) [RH = 81%]
Pressure (altimeter): 30.38 inches Hg (1029.0 mb)
Winds: from the N (10 degrees) at 5 MPH (4 knots; 2.1 m/s)
Visibility: 6 or more miles (10+ km)
Ceiling: 4400 feet AGL
Clouds: broken clouds at 4400 feet AGL
Weather: no significant weather observed at this time

METAR text: EBBR 240450Z 04004KT 010V070 9999 BKN044 06/03 Q1028 NOSIG
Conditions at: EBBR (BRUSSELS NATIONA, BE) observed 0450 UTC 24 March 2019
Temperature: 6.0°C (43°F)
Dewpoint: 3.0°C (37°F) [RH = 81%]
Pressure (altimeter): 30.35 inches Hg (1028.0 mb)
Winds: from the NE (40 degrees) at 5 MPH (4 knots; 2.1 m/s)
Visibility: 6 or more miles (10+ km)
Ceiling: 4400 feet AGL
Clouds: broken clouds at 4400 feet AGL
Weather: no significant weather observed at this time

METAR text: EBBR 240420Z 01003KT 9999 FEW011 BKN039 06/04 Q1029 TEMPO BKN013
Conditions at: EBBR (BRUSSELS NATIONA, BE) observed 0420 UTC 24 March 2019
Temperature: 6.0°C (43°F)
Dewpoint: 4.0°C (39°F) [RH = 87%]
Pressure (altimeter): 30.38 inches Hg (1029.0 mb)
Winds: from the N (10 degrees) at 3 MPH (3 knots; 1.5 m/s)
Visibility: 6 or more miles (10+ km)
Ceiling: 3900 feet AGL
Clouds: few clouds at 1100 feet AGL
broken clouds at 3900 feet AGL
Weather: no significant weather observed at this time

METAR text: EBBR 240350Z 02004KT 350V050 9999 SCT011 BKN036 06/05 Q1029 TEMPO BKN013
Conditions at: EBBR (BRUSSELS NATIONA, BE) observed 0350 UTC 24 March 2019
Temperature: 6.0°C (43°F)
Dewpoint: 5.0°C (41°F) [RH = 93%]
Pressure (altimeter): 30.38 inches Hg (1029.0 mb)
Winds: from the NNE (20 degrees) at 5 MPH (4 knots; 2.1 m/s)
Visibility: 6 or more miles (10+ km)
Ceiling: 3600 feet AGL
Clouds: scattered clouds at 1100 feet AGL
broken clouds at 3600 feet AGL
Weather: no significant weather observed at this time

METAR text: EBBR 240320Z 02005KT 9999 SCT013 BKN030 06/05 Q1029 TEMPO BKN013
Conditions at: EBBR (BRUSSELS NATIONA, BE) observed 0320 UTC 24 March 2019
Temperature: 6.0°C (43°F)
Dewpoint: 5.0°C (41°F) [RH = 93%]
Pressure (altimeter): 30.38 inches Hg (1029.0 mb)
Winds: from the NNE (20 degrees) at 6 MPH (5 knots; 2.6 m/s)
Visibility: 6 or more miles (10+ km)
Ceiling: 3000 feet AGL
Clouds: scattered clouds at 1300 feet AGL
broken clouds at 3000 feet AGL
Weather: no significant weather observed at this time

METAR text: EBBR 240250Z 02004KT 9999 SCT025 BKN036 06/04 Q1029 NOSIG
Conditions at: EBBR (BRUSSELS NATIONA, BE) observed 0250 UTC 24 March 2019
Temperature: 6.0°C (43°F)
Dewpoint: 4.0°C (39°F) [RH = 87%]
Pressure (altimeter): 30.38 inches Hg (1029.0 mb)
Winds: from the NNE (20 degrees) at 5 MPH (4 knots; 2.1 m/s)
Visibility: 6 or more miles (10+ km)
Ceiling: 3600 feet AGL
Clouds: scattered clouds at 2500 feet AGL
broken clouds at 3600 feet AGL
Weather: no significant weather observed at this time

METAR text: EBBR 240220Z 01004KT 9999 BKN033 06/04 Q1029 NOSIG
Conditions at: EBBR (BRUSSELS NATIONA, BE) observed 0220 UTC 24 March 2019
Temperature: 6.0°C (43°F)
Dewpoint: 4.0°C (39°F) [RH = 87%]
Pressure (altimeter): 30.38 inches Hg (1029.0 mb)
Winds: from the N (10 degrees) at 5 MPH (4 knots; 2.1 m/s)
Visibility: 6 or more miles (10+ km)
Ceiling: 3300 feet AGL
Clouds: broken clouds at 3300 feet AGL
Weather: no significant weather observed at this time

METAR text: EBBR 240150Z 01004KT 9999 SCT018 BKN033 07/04 Q1029 NOSIG
Conditions at: EBBR (BRUSSELS NATIONA, BE) observed 0150 UTC 24 March 2019
Temperature: 7.0°C (45°F)
Dewpoint: 4.0°C (39°F) [RH = 81%]
Pressure (altimeter): 30.38 inches Hg (1029.0 mb)
Winds: from the N (10 degrees) at 5 MPH (4 knots; 2.1 m/s)
Visibility: 6 or more miles (10+ km)
Ceiling: 3300 feet AGL
Clouds: scattered clouds at 1800 feet AGL
broken clouds at 3300 feet AGL
Weather: no significant weather observed at this time

METAR text: EBBR 240120Z 01006KT 9999 SCT018 BKN034 07/04 Q1030 NOSIG
Conditions at: EBBR (BRUSSELS NATIONA, BE) observed 0120 UTC 24 March 2019
Temperature: 7.0°C (45°F)
Dewpoint: 4.0°C (39°F) [RH = 81%]
Pressure (altimeter): 30.41 inches Hg (1030.0 mb)
Winds: from the N (10 degrees) at 7 MPH (6 knots; 3.1 m/s)
Visibility: 6 or more miles (10+ km)
Ceiling: 3400 feet AGL
Clouds: scattered clouds at 1800 feet AGL
broken clouds at 3400 feet AGL
Weather: no significant weather observed at this time

METAR text: EBBR 240050Z 36005KT 9999 SCT018 BKN034 07/04 Q1030 NOSIG
Conditions at: EBBR (BRUSSELS NATIONA, BE) observed 0050 UTC 24 March 2019
Temperature: 7.0°C (45°F)
Dewpoint: 4.0°C (39°F) [RH = 81%]
Pressure (altimeter): 30.41 inches Hg (1030.0 mb)
Winds: from the N (360 degrees) at 6 MPH (5 knots; 2.6 m/s)
Visibility: 6 or more miles (10+ km)
Ceiling: 3400 feet AGL
Clouds: scattered clouds at 1800 feet AGL
broken clouds at 3400 feet AGL
Weather: no significant weather observed at this time

METAR text: EBBR 240020Z 03006KT 9999 SCT017 BKN034 07/05 Q1030 NOSIG
Conditions at: EBBR (BRUSSELS NATIONA, BE) observed 0020 UTC 24 March 2019
Temperature: 7.0°C (45°F)
Dewpoint: 5.0°C (41°F) [RH = 87%]
Pressure (altimeter): 30.41 inches Hg (1030.0 mb)
Winds: from the NNE (30 degrees) at 7 MPH (6 knots; 3.1 m/s)
Visibility: 6 or more miles (10+ km)
Ceiling: 3400 feet AGL
Clouds: scattered clouds at 1700 feet AGL
broken clouds at 3400 feet AGL
Weather: no significant weather observed at this time

METAR text: EBBR 232350Z 04006KT 9999 FEW016 BKN035 08/05 Q1030 NOSIG
Conditions at: EBBR (BRUSSELS NATIONA, BE) observed 2350 UTC 23 March 2019
Temperature: 8.0°C (46°F)
Dewpoint: 5.0°C (41°F) [RH = 81%]
Pressure (altimeter): 30.41 inches Hg (1030.0 mb)
Winds: from the NE (40 degrees) at 7 MPH (6 knots; 3.1 m/s)
Visibility: 6 or more miles (10+ km)
Ceiling: 3500 feet AGL
Clouds: few clouds at 1600 feet AGL
broken clouds at 3500 feet AGL
Weather: no significant weather observed at this time

METAR text: EBBR 232320Z 02006KT 9999 SCT016 BKN033 08/05 Q1030 NOSIG
Conditions at: EBBR (BRUSSELS NATIONA, BE) observed 2320 UTC 23 March 2019
Temperature: 8.0°C (46°F)
Dewpoint: 5.0°C (41°F) [RH = 81%]
Pressure (altimeter): 30.41 inches Hg (1030.0 mb)
Winds: from the NNE (20 degrees) at 7 MPH (6 knots; 3.1 m/s)
Visibility: 6 or more miles (10+ km)
Ceiling: 3300 feet AGL
Clouds: scattered clouds at 1600 feet AGL
broken clouds at 3300 feet AGL
Weather: no significant weather observed at this time

METAR text: EBBR 232250Z 02004KT 9999 BKN022 08/06 Q1030 NOSIG
Conditions at: EBBR (BRUSSELS NATIONA, BE) observed 2250 UTC 23 March 2019
Temperature: 8.0°C (46°F)
Dewpoint: 6.0°C (43°F) [RH = 87%]
Pressure (altimeter): 30.41 inches Hg (1030.0 mb)
Winds: from the NNE (20 degrees) at 5 MPH (4 knots; 2.1 m/s)
Visibility: 6 or more miles (10+ km)
Ceiling: 2200 feet AGL
Clouds: broken clouds at 2200 feet AGL
Weather: no significant weather observed at this time

METAR text: EBBR 232220Z 03005KT 9999 BKN022 08/06 Q1030 NOSIG
Conditions at: EBBR (BRUSSELS NATIONA, BE) observed 2220 UTC 23 March 2019
Temperature: 8.0°C (46°F)
Dewpoint: 6.0°C (43°F) [RH = 87%]
Pressure (altimeter): 30.41 inches Hg (1030.0 mb)
Winds: from the NNE (30 degrees) at 6 MPH (5 knots; 2.6 m/s)
Visibility: 6 or more miles (10+ km)
Ceiling: 2200 feet AGL
Clouds: broken clouds at 2200 feet AGL
Weather: no significant weather observed at this time

METAR text: EBBR 232150Z 04005KT 9999 BKN020 09/06 Q1030 NOSIG
Conditions at: EBBR (BRUSSELS NATIONA, BE) observed 2150 UTC 23 March 2019
Temperature: 9.0°C (48°F)
Dewpoint: 6.0°C (43°F) [RH = 81%]
Pressure (altimeter): 30.41 inches Hg (1030.0 mb)
Winds: from the NE (40 degrees) at 6 MPH (5 knots; 2.6 m/s)
Visibility: 6 or more miles (10+ km)
Ceiling: 2000 feet AGL
Clouds: broken clouds at 2000 feet AGL
Weather: no significant weather observed at this time

METAR text: EBBR 232120Z 03006KT 9999 SCT022 BKN046 09/07 Q1031 NOSIG
Conditions at: EBBR (BRUSSELS NATIONA, BE) observed 2120 UTC 23 March 2019
Temperature: 9.0°C (48°F)
Dewpoint: 7.0°C (45°F) [RH = 87%]
Pressure (altimeter): 30.44 inches Hg (1031.0 mb)
Winds: from the NNE (30 degrees) at 7 MPH (6 knots; 3.1 m/s)
Visibility: 6 or more miles (10+ km)
Ceiling: 4600 feet AGL
Clouds: scattered clouds at 2200 feet AGL
broken clouds at 4600 feet AGL
Weather: no significant weather observed at this time

METAR text: EBBR 232050Z 03005KT 9999 SCT022 BKN046 09/07 Q1031 NOSIG
Conditions at: EBBR (BRUSSELS NATIONA, BE) observed 2050 UTC 23 March 2019
Temperature: 9.0°C (48°F)
Dewpoint: 7.0°C (45°F) [RH = 87%]
Pressure (altimeter): 30.44 inches Hg (1031.0 mb)
Winds: from the NNE (30 degrees) at 6 MPH (5 knots; 2.6 m/s)
Visibility: 6 or more miles (10+ km)
Ceiling: 4600 feet AGL
Clouds: scattered clouds at 2200 feet AGL
broken clouds at 4600 feet AGL
Weather: no significant weather observed at this time

METAR text: EBBR 232020Z 04004KT 9999 BKN042 09/08 Q1031 NOSIG
Conditions at: EBBR (BRUSSELS NATIONA, BE) observed 2020 UTC 23 March 2019
Temperature: 9.0°C (48°F)
Dewpoint: 8.0°C (46°F) [RH = 93%]
Pressure (altimeter): 30.44 inches Hg (1031.0 mb)
Winds: from the NE (40 degrees) at 5 MPH (4 knots; 2.1 m/s)
Visibility: 6 or more miles (10+ km)
Ceiling: 4200 feet AGL
Clouds: broken clouds at 4200 feet AGL
Weather: no significant weather observed at this time

METAR text: EBBR 231950Z 05003KT 9999 SCT030 BKN040 09/08 Q1031 NOSIG
Conditions at: EBBR (BRUSSELS NATIONA, BE) observed 1950 UTC 23 March 2019
Temperature: 9.0°C (48°F)
Dewpoint: 8.0°C (46°F) [RH = 93%]
Pressure (altimeter): 30.44 inches Hg (1031.0 mb)
Winds: from the NE (50 degrees) at 3 MPH (3 knots; 1.5 m/s)
Visibility: 6 or more miles (10+ km)
Ceiling: 4000 feet AGL
Clouds: scattered clouds at 3000 feet AGL
broken clouds at 4000 feet AGL
Weather: no significant weather observed at this time

METAR text: EBBR 231920Z 06004KT 9999 BKN028 09/08 Q1031 NOSIG
Conditions at: EBBR (BRUSSELS NATIONA, BE) observed 1920 UTC 23 March 2019
Temperature: 9.0°C (48°F)
Dewpoint: 8.0°C (46°F) [RH = 93%]
Pressure (altimeter): 30.44 inches Hg (1031.0 mb)
Winds: from the ENE (60 degrees) at 5 MPH (4 knots; 2.1 m/s)
Visibility: 6 or more miles (10+ km)
Ceiling: 2800 feet AGL
Clouds: broken clouds at 2800 feet AGL
Weather: no significant weather observed at this time

METAR text: EBBR 231850Z 04003KT 9999 SCT012 BKN024 09/08 Q1031 TEMPO 4000 -DZRA SCT008 BKN012
Conditions at: EBBR (BRUSSELS NATIONA, BE) observed 1850 UTC 23 March 2019
Temperature: 9.0°C (48°F)
Dewpoint: 8.0°C (46°F) [RH = 93%]
Pressure (altimeter): 30.44 inches Hg (1031.0 mb)
Winds: from the NE (40 degrees) at 3 MPH (3 knots; 1.5 m/s)
Visibility: 6 or more miles (10+ km)
Ceiling: 2400 feet AGL
Clouds: scattered clouds at 1200 feet AGL
broken clouds at 2400 feet AGL
Weather: no significant weather observed at this time

METAR text: EBBR 231820Z 02003KT 9999 -RA BKN030 09/09 Q1031 TEMPO 4000 -DZRA SCT008 BKN012
Conditions at: EBBR (BRUSSELS NATIONA, BE) observed 1820 UTC 23 March 2019
Temperature: 9.0°C (48°F)
Dewpoint: 9.0°C (48°F) [RH = 100%]
Pressure (altimeter): 30.44 inches Hg (1031.0 mb)
Winds: from the NNE (20 degrees) at 3 MPH (3 knots; 1.5 m/s)
Visibility: 6 or more miles (10+ km)
Ceiling: 3000 feet AGL
Clouds: broken clouds at 3000 feet AGL
Weather: -RA  (light rain)

METAR text: EBBR 231750Z 03006KT 5000 -DZ SCT012 BKN024 09/09 Q1030 TEMPO 4000 -DZRA SCT008 BKN012
Conditions at: EBBR (BRUSSELS NATIONA, BE) observed 1750 UTC 23 March 2019
Temperature: 9.0°C (48°F)
Dewpoint: 9.0°C (48°F) [RH = 100%]
Pressure (altimeter): 30.41 inches Hg (1030.0 mb)
Winds: from the NNE (30 degrees) at 7 MPH (6 knots; 3.1 m/s)
Visibility: 3 miles ( 5 km)
Ceiling: 2400 feet AGL
Clouds: scattered clouds at 1200 feet AGL
broken clouds at 2400 feet AGL
Weather: -DZ  (light drizzle)

METAR text: EBBR 231720Z 04007KT 4500 -RADZ FEW013 BKN023 10/08 Q1030 TEMPO 4000 -DZRA SCT008 BKN012
Conditions at: EBBR (BRUSSELS NATIONA, BE) observed 1720 UTC 23 March 2019
Temperature: 10.0°C (50°F)
Dewpoint: 8.0°C (46°F) [RH = 87%]
Pressure (altimeter): 30.41 inches Hg (1030.0 mb)
Winds: from the NE (40 degrees) at 8 MPH (7 knots; 3.6 m/s)
Visibility: 2.80 miles (4.51 km)
Ceiling: 2300 feet AGL
Clouds: few clouds at 1300 feet AGL
broken clouds at 2300 feet AGL
Weather: -RA -DZ  (light rain, light drizzle)

METAR text: EBBR 231650Z 02005KT 7000 -RADZ SCT014 BKN024 10/08 Q1030 TEMPO 4000 -DZRA SCT008 BKN012
Conditions at: EBBR (BRUSSELS NATIONA, BE) observed 1650 UTC 23 March 2019
Temperature: 10.0°C (50°F)
Dewpoint: 8.0°C (46°F) [RH = 87%]
Pressure (altimeter): 30.41 inches Hg (1030.0 mb)
Winds: from the NNE (20 degrees) at 6 MPH (5 knots; 2.6 m/s)
Visibility: 4 miles ( 7 km)
Ceiling: 2400 feet AGL
Clouds: scattered clouds at 1400 feet AGL
broken clouds at 2400 feet AGL
Weather: -RA -DZ  (light rain, light drizzle)

METAR text: EBBR 231620Z 36003KT 7000 -RA SCT015 BKN023 11/08 Q1030 TEMPO 4500 -DZRA SCT008 BKN012
Conditions at: EBBR (BRUSSELS NATIONA, BE) observed 1620 UTC 23 March 2019
Temperature: 11.0°C (52°F)
Dewpoint: 8.0°C (46°F) [RH = 82%]
Pressure (altimeter): 30.41 inches Hg (1030.0 mb)
Winds: from the N (360 degrees) at 3 MPH (3 knots; 1.5 m/s)
Visibility: 4 miles ( 7 km)
Ceiling: 2300 feet AGL
Clouds: scattered clouds at 1500 feet AGL
broken clouds at 2300 feet AGL
Weather: -RA  (light rain)

METAR text: EBBR 231550Z VRB02KT 8000 SCT017 BKN026 11/08 Q1031 NOSIG
Conditions at: EBBR (BRUSSELS NATIONA, BE) observed 1550 UTC 23 March 2019
Temperature: 11.0°C (52°F)
Dewpoint: 8.0°C (46°F) [RH = 82%]
Pressure (altimeter): 30.44 inches Hg (1031.0 mb)
Winds: variable direction winds at 2 MPH (2 knots; 1.0 m/s)
Visibility: 5 miles ( 8 km)
Ceiling: 2600 feet AGL
Clouds: scattered clouds at 1700 feet AGL
broken clouds at 2600 feet AGL
Weather: no significant weather observed at this time

METAR text: EBBR 231520Z 00000KT 7000 SCT020 BKN038 11/08 Q1030 NOSIG
Conditions at: EBBR (BRUSSELS NATIONA, BE) observed 1520 UTC 23 March 2019
Temperature: 11.0°C (52°F)
Dewpoint: 8.0°C (46°F) [RH = 82%]
Pressure (altimeter): 30.41 inches Hg (1030.0 mb)
Winds: calm
Visibility: 4 miles ( 7 km)
Ceiling: 3800 feet AGL
Clouds: scattered clouds at 2000 feet AGL
broken clouds at 3800 feet AGL
Weather: no significant weather observed at this time

METAR text: EBBR 231450Z 00000KT 7000 SCT020 BKN038 11/07 Q1031 NOSIG
Conditions at: EBBR (BRUSSELS NATIONA, BE) observed 1450 UTC 23 March 2019
Temperature: 11.0°C (52°F)
Dewpoint: 7.0°C (45°F) [RH = 76%]
Pressure (altimeter): 30.44 inches Hg (1031.0 mb)
Winds: calm
Visibility: 4 miles ( 7 km)
Ceiling: 3800 feet AGL
Clouds: scattered clouds at 2000 feet AGL
broken clouds at 3800 feet AGL
Weather: no significant weather observed at this time

METAR text: EBBR 231420Z 00000KT 6000 SCT018 BKN035 11/07 Q1031 NOSIG
Conditions at: EBBR (BRUSSELS NATIONA, BE) observed 1420 UTC 23 March 2019
Temperature: 11.0°C (52°F)
Dewpoint: 7.0°C (45°F) [RH = 76%]
Pressure (altimeter): 30.44 inches Hg (1031.0 mb)
Winds: calm
Visibility: 4 miles ( 6 km)
Ceiling: 3500 feet AGL
Clouds: scattered clouds at 1800 feet AGL
broken clouds at 3500 feet AGL
Weather: no significant weather observed at this time

METAR text: EBBR 231350Z VRB01KT 6000 FEW017 BKN035 11/07 Q1031 NOSIG
Conditions at: EBBR (BRUSSELS NATIONA, BE) observed 1350 UTC 23 March 2019
Temperature: 11.0°C (52°F)
Dewpoint: 7.0°C (45°F) [RH = 76%]
Pressure (altimeter): 30.44 inches Hg (1031.0 mb)
Winds: variable direction winds at 1 MPH (1 knots; 0.5 m/s)
Visibility: 4 miles ( 6 km)
Ceiling: 3500 feet AGL
Clouds: few clouds at 1700 feet AGL
broken clouds at 3500 feet AGL
Weather: no significant weather observed at this time

METAR text: EBBR 231320Z VRB01KT 6000 FEW017 BKN035 11/07 Q1031 NOSIG
Conditions at: EBBR (BRUSSELS NATIONA, BE) observed 1320 UTC 23 March 2019
Temperature: 11.0°C (52°F)
Dewpoint: 7.0°C (45°F) [RH = 76%]
Pressure (altimeter): 30.44 inches Hg (1031.0 mb)
Winds: variable direction winds at 1 MPH (1 knots; 0.5 m/s)
Visibility: 4 miles ( 6 km)
Ceiling: 3500 feet AGL
Clouds: few clouds at 1700 feet AGL
broken clouds at 3500 feet AGL
Weather: no significant weather observed at this time

METAR text: EBBR 231250Z VRB01KT 6000 SCT015 BKN035 11/07 Q1031 NOSIG
Conditions at: EBBR (BRUSSELS NATIONA, BE) observed 1250 UTC 23 March 2019
Temperature: 11.0°C (52°F)
Dewpoint: 7.0°C (45°F) [RH = 76%]
Pressure (altimeter): 30.44 inches Hg (1031.0 mb)
Winds: variable direction winds at 1 MPH (1 knots; 0.5 m/s)
Visibility: 4 miles ( 6 km)
Ceiling: 3500 feet AGL
Clouds: scattered clouds at 1500 feet AGL
broken clouds at 3500 feet AGL
Weather: no significant weather observed at this time

METAR text: EBBR 231220Z 31003KT 270V010 6000 SCT015 BKN033 10/07 Q1031 NOSIG
Conditions at: EBBR (BRUSSELS NATIONA, BE) observed 1220 UTC 23 March 2019
Temperature: 10.0°C (50°F)
Dewpoint: 7.0°C (45°F) [RH = 82%]
Pressure (altimeter): 30.44 inches Hg (1031.0 mb)
Winds: from the NW (310 degrees) at 3 MPH (3 knots; 1.5 m/s)
Visibility: 4 miles ( 6 km)
Ceiling: 3300 feet AGL
Clouds: scattered clouds at 1500 feet AGL
broken clouds at 3300 feet AGL
Weather: no significant weather observed at this time

METAR text: EBBR 231150Z 31004KT 280V360 5000 BR BKN015 10/07 Q1031 NOSIG
Conditions at: EBBR (BRUSSELS NATIONA, BE) observed 1150 UTC 23 March 2019
Temperature: 10.0°C (50°F)
Dewpoint: 7.0°C (45°F) [RH = 82%]
Pressure (altimeter): 30.44 inches Hg (1031.0 mb)
Winds: from the NW (310 degrees) at 5 MPH (4 knots; 2.1 m/s)
Visibility: 3 miles ( 5 km)
Ceiling: 1500 feet AGL
Clouds: broken clouds at 1500 feet AGL
Weather: BR  (mist)

METAR text: EBBR 231120Z 30003KT 280V340 5000 BR BKN016 10/07 Q1031 NOSIG
Conditions at: EBBR (BRUSSELS NATIONA, BE) observed 1120 UTC 23 March 2019
Temperature: 10.0°C (50°F)
Dewpoint: 7.0°C (45°F) [RH = 82%]
Pressure (altimeter): 30.44 inches Hg (1031.0 mb)
Winds: from the WNW (300 degrees) at 3 MPH (3 knots; 1.5 m/s)
Visibility: 3 miles ( 5 km)
Ceiling: 1600 feet AGL
Clouds: broken clouds at 1600 feet AGL
Weather: BR  (mist)

METAR text: EBBR 231050Z 30003KT 270V330 5000 BR FEW016 BKN020 09/06 Q1031 NOSIG
Conditions at: EBBR (BRUSSELS NATIONA, BE) observed 1050 UTC 23 March 2019
Temperature: 9.0°C (48°F)
Dewpoint: 6.0°C (43°F) [RH = 81%]
Pressure (altimeter): 30.44 inches Hg (1031.0 mb)
Winds: from the WNW (300 degrees) at 3 MPH (3 knots; 1.5 m/s)
Visibility: 3 miles ( 5 km)
Ceiling: 2000 feet AGL
Clouds: few clouds at 1600 feet AGL
broken clouds at 2000 feet AGL
Weather: BR  (mist)

METAR text: EBBR 231020Z 30003KT 5000 BR SCT020 BKN029 09/06 Q1031 NOSIG
Conditions at: EBBR (BRUSSELS NATIONA, BE) observed 1020 UTC 23 March 2019
Temperature: 9.0°C (48°F)
Dewpoint: 6.0°C (43°F) [RH = 81%]
Pressure (altimeter): 30.44 inches Hg (1031.0 mb)
Winds: from the WNW (300 degrees) at 3 MPH (3 knots; 1.5 m/s)
Visibility: 3 miles ( 5 km)
Ceiling: 2900 feet AGL
Clouds: scattered clouds at 2000 feet AGL
broken clouds at 2900 feet AGL
Weather: BR  (mist)

Forecast for: EBBR (BRUSSELS NATIONA, BE)
Text: TAF EBBR 241710Z 2418/2524 27005KT CAVOK
Forecast period: 1800 UTC 24 March 2019 to 0800 UTC 25 March 2019
Forecast type: FROM: standard forecast or significant change
Winds: from the W (270 degrees) at 6 MPH (5 knots; 2.6 m/s)
Visibility: 6 or more miles 10+ km)
Ceiling: unknown
Clouds: missing
Weather: NSW  (no significant weather)
Text: BECMG 2508/2510 33015KT
Forecast period: 0800 UTC 25 March 2019 to 0000 UTC 26 March 2019
Forecast type: BECOMING: Conditions expected to become as follows by 1000 UTC 25 March 2019
Winds: from the NNW (330 degrees) at 17 MPH (15 knots; 7.7 m/s)
Visibility: 6 or more miles 10+ km)
Ceiling: unknown
Clouds: missing
Weather: NSW  (no significant weather)
Text: TEMPO 2510/2517 33015G25KT
Forecast period: 1000 to 1700 UTC 25 March 2019
Forecast type: TEMPORARY: The following changes expected for less than half the time period
Winds: from the NNW (330 degrees) at 17 MPH (15 knots; 7.7 m/s)
gusting to 29 MPH (25 knots; 12.9 m/s)
Visibility: missing
Ceiling: unknown
Clouds: missing
Weather: no significant weather forecast for this period